createdAt,value
2019-05-15T00:02:25.358Z,26.30
2019-05-15T00:05:01.713Z,26.30
2019-05-15T00:07:39.267Z,26.30
2019-05-15T00:10:17.938Z,26.20
2019-05-15T00:12:57.966Z,26.30
2019-05-15T00:15:34.091Z,26.30
2019-05-15T00:18:10.447Z,26.40
2019-05-15T00:20:49.347Z,26.50
2019-05-15T00:23:25.097Z,26.50
2019-05-15T00:26:01.702Z,26.50
2019-05-15T00:28:38.809Z,26.60
2019-05-15T00:31:15.528Z,26.70
2019-05-15T00:33:52.658Z,26.80
2019-05-15T00:36:29.374Z,26.80
2019-05-15T00:39:08.259Z,26.80
2019-05-15T00:41:51.420Z,26.90
2019-05-15T00:44:22.648Z,26.90
2019-05-15T00:46:59.206Z,26.80
2019-05-15T00:49:35.279Z,26.90
2019-05-15T00:52:12.140Z,26.90
2019-05-15T00:54:48.763Z,26.80
2019-05-15T00:57:25.111Z,26.90
2019-05-15T01:00:01.451Z,27.00
2019-05-15T01:02:39.112Z,27.20
2019-05-15T01:05:15.521Z,27.30
2019-05-15T01:07:52.048Z,27.40
2019-05-15T01:10:28.660Z,27.70
2019-05-15T01:13:05.254Z,27.90
2019-05-15T01:15:41.802Z,27.90
2019-05-15T01:18:18.931Z,27.90
2019-05-15T01:20:58.647Z,28.00
2019-05-15T01:23:35.108Z,27.90
2019-05-15T01:26:11.662Z,28.10
2019-05-15T01:28:49.456Z,28.20
2019-05-15T01:31:28.352Z,28.40
2019-05-15T01:34:03.906Z,28.30
2019-05-15T01:36:40.441Z,28.20
2019-05-15T01:39:18.521Z,28.00
2019-05-15T01:41:54.547Z,28.20
2019-05-15T01:44:30.666Z,28.50
2019-05-15T01:47:08.516Z,28.30
2019-05-15T01:49:45.278Z,28.40
2019-05-15T01:52:22.123Z,28.10
2019-05-15T01:54:58.482Z,28.30
2019-05-15T01:57:35.468Z,28.60
2019-05-15T02:00:13.104Z,28.90
2019-05-15T02:02:49.886Z,28.90
2019-05-15T02:05:28.425Z,28.70
2019-05-15T02:08:08.033Z,28.70
2019-05-15T02:10:44.404Z,28.70
2019-05-15T02:13:39.120Z,29.00
2019-05-15T02:16:16.252Z,29.30
2019-05-15T02:18:53.119Z,29.70
2019-05-15T02:21:29.952Z,29.90
2019-05-15T02:24:07.966Z,30.00
2019-05-15T02:26:44.162Z,29.90
2019-05-15T02:29:25.112Z,30.20
2019-05-15T02:32:00.011Z,30.40
2019-05-15T02:34:39.398Z,30.70
2019-05-15T02:37:14.123Z,30.80
2019-05-15T02:39:51.076Z,30.40
2019-05-15T02:42:28.976Z,30.00
2019-05-15T02:45:06.015Z,29.90
2019-05-15T02:47:42.679Z,30.00
2019-05-15T02:50:20.359Z,30.10
2019-05-15T02:53:00.554Z,30.20
2019-05-15T02:55:36.022Z,30.20
2019-05-15T02:58:12.645Z,30.30
2019-05-15T03:00:58.892Z,30.40
2019-05-15T03:03:33.753Z,30.40
2019-05-15T03:06:10.368Z,30.60
2019-05-15T03:08:49.502Z,30.70
2019-05-15T03:11:25.119Z,30.80
2019-05-15T03:14:01.646Z,30.70
2019-05-15T03:16:39.822Z,30.70
2019-05-15T03:19:19.279Z,30.60
2019-05-15T03:21:54.747Z,30.60
2019-05-15T03:24:33.028Z,30.50
2019-05-15T03:27:09.807Z,30.70
2019-05-15T03:29:49.403Z,31.00
2019-05-15T03:32:40.470Z,31.00
2019-05-15T03:35:05.248Z,31.20
2019-05-15T03:37:41.271Z,31.30
2019-05-15T03:40:19.418Z,31.50
2019-05-15T03:42:59.020Z,31.60
2019-05-15T03:45:34.555Z,32.00
2019-05-15T03:48:11.535Z,32.10
2019-05-15T03:50:48.918Z,32.40
2019-05-15T03:53:25.728Z,32.90
2019-05-15T03:56:02.870Z,32.50
2019-05-15T03:58:40.311Z,32.30
2019-05-15T04:01:29.887Z,31.90
2019-05-15T04:03:55.582Z,31.80
2019-05-15T04:06:32.157Z,32.00
2019-05-15T04:09:09.536Z,31.90
2019-05-15T04:11:49.367Z,32.40
2019-05-15T04:14:24.362Z,32.20
2019-05-15T04:17:01.087Z,31.90
2019-05-15T04:19:39.304Z,31.90
2019-05-15T04:22:15.853Z,31.60
2019-05-15T04:24:52.921Z,31.70
2019-05-15T04:27:30.051Z,31.80
2019-05-15T04:30:10.149Z,32.30
2019-05-15T04:32:44.518Z,33.00
2019-05-15T04:35:20.909Z,32.20
2019-05-15T04:37:59.747Z,32.00
2019-05-15T04:40:35.174Z,32.80
2019-05-15T04:43:12.117Z,33.20
2019-05-15T04:45:49.794Z,33.40
2019-05-15T04:48:28.741Z,33.30
2019-05-15T04:51:04.363Z,33.20
2019-05-15T04:53:42.990Z,32.80
2019-05-15T04:56:19.640Z,33.40
2019-05-15T04:58:59.700Z,33.50
2019-05-15T05:01:34.083Z,33.60
2019-05-15T05:04:11.082Z,33.80
2019-05-15T05:06:49.453Z,33.60
2019-05-15T05:09:28.666Z,33.60
2019-05-15T05:12:03.584Z,33.70
2019-05-15T05:14:40.020Z,33.70
2019-05-15T05:17:19.047Z,33.40
2019-05-15T05:19:54.872Z,33.80
2019-05-15T05:22:31.425Z,33.50
2019-05-15T05:25:08.393Z,34.00
2019-05-15T05:27:48.524Z,34.00
2019-05-15T05:30:24.323Z,33.40
2019-05-15T05:33:01.135Z,33.70
2019-05-15T05:35:38.699Z,33.90
2019-05-15T05:38:15.561Z,34.00
2019-05-15T05:40:52.720Z,34.30
2019-05-15T05:43:29.958Z,34.10
2019-05-15T05:46:08.996Z,34.20
2019-05-15T05:48:44.344Z,33.60
2019-05-15T05:51:21.456Z,33.20
2019-05-15T05:53:58.970Z,33.10
2019-05-15T05:56:37.694Z,33.90
2019-05-15T05:59:13.249Z,33.90
2019-05-15T06:01:50.188Z,33.40
2019-05-15T06:04:27.951Z,33.00
2019-05-15T06:07:22.204Z,32.70
2019-05-15T06:09:58.809Z,33.50
2019-05-15T06:12:35.200Z,34.50
2019-05-15T06:15:11.945Z,34.70
2019-05-15T06:17:48.616Z,35.00
2019-05-15T06:20:25.051Z,35.00
2019-05-15T06:23:00.997Z,35.10
2019-05-15T06:25:39.098Z,34.70
2019-05-15T06:28:15.550Z,34.80
2019-05-15T06:30:52.279Z,34.20
2019-05-15T06:33:29.117Z,33.70
2019-05-15T06:36:05.746Z,33.60
2019-05-15T06:38:42.233Z,33.60
2019-05-15T06:41:18.798Z,33.90
2019-05-15T06:43:55.651Z,34.30
2019-05-15T06:46:32.368Z,33.60
2019-05-15T06:49:09.099Z,33.20
2019-05-15T06:51:48.544Z,34.00
2019-05-15T06:54:24.466Z,34.70
2019-05-15T06:57:01.150Z,35.10
2019-05-15T06:59:38.918Z,34.60
2019-05-15T07:02:15.827Z,33.70
2019-05-15T07:04:52.699Z,33.40
2019-05-15T07:07:30.444Z,33.60
2019-05-15T07:10:09.005Z,34.20
2019-05-15T07:12:49.166Z,34.60
2019-05-15T07:15:24.650Z,35.10
2019-05-15T07:18:01.502Z,35.50
2019-05-15T07:20:39.286Z,35.10
2019-05-15T07:23:18.647Z,34.70
2019-05-15T07:25:58.553Z,33.80
2019-05-15T07:28:34.130Z,33.50
2019-05-15T07:31:11.619Z,33.40
2019-05-15T07:33:49.252Z,33.60
2019-05-15T07:36:28.604Z,33.60
2019-05-15T07:39:03.511Z,33.50
2019-05-15T07:41:39.591Z,33.10
2019-05-15T07:44:18.615Z,32.70
2019-05-15T07:46:53.927Z,32.40
2019-05-15T07:49:30.733Z,32.30
2019-05-15T07:52:08.603Z,32.30
2019-05-15T07:54:45.173Z,32.30
2019-05-15T07:57:21.746Z,32.10
2019-05-15T07:59:58.762Z,31.80
2019-05-15T08:02:37.809Z,31.80
2019-05-15T08:05:15.025Z,31.90
2019-05-15T08:07:51.799Z,31.70
2019-05-15T08:10:28.819Z,31.40
2019-05-15T08:13:05.468Z,31.30
2019-05-15T08:15:43.115Z,31.30
2019-05-15T08:18:19.923Z,31.30
2019-05-15T08:20:58.653Z,31.20
2019-05-15T08:23:34.404Z,31.10
2019-05-15T08:26:10.951Z,31.20
2019-05-15T08:28:48.697Z,31.20
2019-05-15T08:31:25.333Z,31.10
2019-05-15T08:34:12.824Z,31.10
2019-05-15T08:36:40.263Z,31.20
2019-05-15T08:39:19.064Z,31.30
2019-05-15T08:41:54.330Z,31.20
2019-05-15T08:44:30.842Z,31.00
2019-05-15T08:47:10.640Z,30.60
2019-05-15T08:49:48.481Z,30.40
2019-05-15T08:52:25.371Z,30.10
2019-05-15T08:55:02.730Z,29.90
2019-05-15T08:57:39.747Z,29.20
2019-05-15T09:00:18.598Z,28.80
2019-05-15T09:02:54.883Z,28.60
2019-05-15T09:05:31.635Z,28.90
2019-05-15T09:08:09.382Z,28.90
2019-05-15T09:10:46.132Z,28.90
2019-05-15T09:13:22.992Z,28.80
2019-05-15T09:15:59.390Z,28.80
2019-05-15T09:18:36.111Z,28.70
2019-05-15T09:21:13.017Z,28.60
2019-05-15T09:23:50.076Z,28.50
2019-05-15T09:26:28.341Z,28.20
2019-05-15T09:29:05.055Z,28.20
2019-05-15T09:31:41.832Z,28.60
2019-05-15T09:34:18.738Z,28.60
2019-05-15T09:36:55.090Z,28.30
2019-05-15T09:39:31.593Z,28.20
2019-05-15T09:42:08.436Z,28.10
2019-05-15T09:44:45.275Z,28.50
2019-05-15T09:47:21.871Z,28.70
2019-05-15T09:50:00.138Z,28.60
2019-05-15T09:52:38.909Z,28.40
2019-05-15T09:55:14.898Z,27.90
2019-05-15T09:57:54.881Z,28.10
2019-05-15T10:00:29.780Z,28.10
2019-05-15T10:03:09.348Z,28.50
2019-05-15T10:05:44.337Z,28.80
2019-05-15T10:08:21.585Z,28.30
2019-05-15T10:10:59.363Z,28.50
2019-05-15T10:13:38.748Z,28.70
2019-05-15T10:16:15.088Z,28.70
2019-05-15T10:18:51.560Z,28.20
2019-05-15T10:21:32.126Z,28.20
2019-05-15T10:24:05.712Z,28.40
2019-05-15T10:26:45.332Z,28.20
2019-05-15T10:29:22.153Z,28.40
2019-05-15T10:31:58.678Z,28.60
2019-05-15T10:34:35.621Z,28.70
2019-05-15T10:37:11.580Z,28.30
2019-05-15T10:39:52.131Z,27.70
2019-05-15T10:42:28.771Z,27.50
2019-05-15T10:45:03.610Z,27.50
2019-05-15T10:47:40.459Z,27.60
2019-05-15T10:50:18.976Z,27.70
2019-05-15T10:52:55.229Z,27.90
2019-05-15T10:55:31.874Z,27.70
2019-05-15T10:58:14.091Z,27.60
2019-05-15T11:00:48.996Z,27.30
2019-05-15T11:03:24.456Z,27.40
2019-05-15T11:06:01.329Z,27.20
2019-05-15T11:08:40.234Z,27.20
2019-05-15T11:11:15.461Z,27.40
2019-05-15T11:13:51.769Z,27.40
2019-05-15T11:16:28.436Z,27.50
2019-05-15T11:19:05.211Z,27.60
2019-05-15T11:21:43.589Z,27.40
2019-05-15T11:24:20.567Z,27.40
2019-05-15T11:26:59.284Z,27.50
2019-05-15T11:29:35.137Z,27.70
2019-05-15T11:32:11.970Z,27.80
2019-05-15T11:34:49.353Z,27.70
2019-05-15T11:37:27.798Z,27.70
2019-05-15T11:40:03.562Z,27.50
2019-05-15T11:42:40.383Z,27.20
2019-05-15T11:45:42.994Z,27.30
2019-05-15T11:48:20.519Z,27.40
2019-05-15T11:51:03.845Z,27.50
2019-05-15T11:53:40.393Z,27.50
2019-05-15T11:56:18.943Z,27.40
2019-05-15T11:58:54.590Z,27.10
2019-05-15T12:01:31.636Z,27.20
2019-05-15T12:04:09.221Z,27.40
2019-05-15T12:06:58.802Z,27.20
2019-05-15T12:09:28.248Z,27.40
2019-05-15T12:12:04.890Z,27.50
2019-05-15T12:14:41.723Z,27.30
2019-05-15T12:17:18.951Z,26.90
2019-05-15T12:20:01.360Z,26.80
2019-05-15T12:22:33.658Z,27.00
2019-05-15T12:25:10.506Z,27.10
2019-05-15T12:27:49.070Z,27.30
2019-05-15T12:30:29.414Z,27.30
2019-05-15T12:33:04.185Z,27.20
2019-05-15T12:36:01.293Z,27.10
2019-05-15T12:38:39.935Z,27.30
2019-05-15T12:59:44.515Z,27.60
2019-05-15T13:02:20.056Z,27.60
2019-05-15T13:04:56.618Z,27.60
2019-05-15T13:07:33.000Z,27.70
2019-05-15T13:10:10.044Z,27.60
2019-05-15T13:12:59.236Z,27.60
2019-05-15T13:15:24.414Z,27.60
2019-05-15T13:18:00.524Z,27.50
2019-05-15T13:20:38.365Z,27.50
2019-05-15T13:23:13.959Z,27.60
2019-05-15T13:25:50.931Z,27.60
2019-05-15T13:28:29.082Z,27.70
2019-05-15T13:31:24.913Z,27.70
2019-05-15T13:34:01.587Z,27.50
2019-05-15T13:36:39.234Z,27.30
2019-05-15T13:39:15.318Z,27.10
2019-05-15T13:41:51.815Z,27.10
2019-05-15T13:44:29.350Z,27.20
2019-05-15T13:47:08.582Z,27.20
2019-05-15T13:49:44.349Z,27.00
2019-05-15T13:52:21.122Z,27.10
2019-05-15T13:54:57.918Z,27.20
2019-05-15T13:57:34.072Z,27.20
2019-05-15T14:00:11.069Z,27.10
2019-05-15T14:02:48.062Z,26.80
2019-05-15T14:05:24.609Z,26.60
2019-05-15T14:08:01.189Z,26.50
2019-05-15T14:10:38.579Z,26.60
2019-05-15T14:13:14.739Z,26.60
2019-05-15T14:15:51.503Z,26.60
2019-05-15T14:18:28.720Z,26.60
2019-05-15T14:21:05.288Z,26.70
2019-05-15T14:23:42.015Z,26.80
2019-05-15T14:26:20.259Z,26.90
2019-05-15T14:28:58.542Z,27.00
2019-05-15T14:31:36.541Z,27.10
2019-05-15T14:34:12.157Z,26.90
2019-05-15T14:36:48.863Z,26.60
2019-05-15T14:39:26.723Z,26.30
2019-05-15T14:42:04.692Z,26.40
2019-05-15T14:44:40.931Z,26.60
2019-05-15T14:47:19.252Z,26.80
2019-05-15T14:49:58.173Z,26.70
2019-05-15T14:52:33.563Z,26.70
2019-05-15T14:55:10.776Z,26.80
2019-05-15T14:57:48.738Z,26.90
2019-05-15T15:00:30.168Z,26.90
2019-05-15T15:03:04.255Z,26.80
2019-05-15T15:05:41.004Z,26.80
2019-05-15T15:08:24.574Z,26.90
2019-05-15T15:10:58.991Z,26.70
2019-05-15T15:13:33.489Z,26.50
2019-05-15T15:16:10.515Z,26.50
2019-05-15T15:18:48.304Z,26.70
2019-05-15T15:21:24.933Z,26.80
2019-05-15T15:24:01.658Z,26.50
2019-05-15T15:26:49.133Z,26.60
2019-05-15T15:29:24.618Z,26.70
2019-05-15T15:32:01.716Z,26.60
2019-05-15T15:34:38.802Z,26.50
2019-05-15T15:37:15.704Z,26.60
2019-05-15T15:39:53.012Z,26.80
2019-05-15T15:42:29.416Z,26.60
2019-05-15T15:45:08.804Z,26.60
2019-05-15T15:47:44.063Z,26.60
2019-05-15T15:50:20.597Z,26.80
2019-05-15T15:52:59.211Z,26.70
2019-05-15T15:55:35.052Z,26.30
2019-05-15T15:58:11.539Z,26.40
2019-05-15T16:00:49.001Z,26.50
2019-05-15T16:03:37.864Z,26.50
2019-05-15T16:06:14.137Z,26.40
2019-05-15T16:08:55.135Z,26.30
2019-05-15T16:11:28.655Z,26.40
2019-05-15T16:14:05.402Z,26.60
2019-05-15T16:16:41.974Z,26.70
2019-05-15T16:19:18.733Z,26.30
2019-05-15T16:21:55.671Z,26.40
2019-05-15T16:24:32.126Z,26.60
2019-05-15T16:27:09.629Z,26.30
2019-05-15T16:29:46.677Z,26.20
2019-05-15T16:32:23.213Z,26.30
2019-05-15T16:34:59.573Z,26.40
2019-05-15T16:37:38.458Z,26.40
2019-05-15T16:40:14.604Z,26.40
2019-05-15T16:42:50.887Z,26.40
2019-05-15T16:45:28.832Z,26.40
2019-05-15T16:48:05.576Z,26.50
2019-05-15T16:50:42.278Z,26.40
2019-05-15T16:53:18.961Z,26.50
2019-05-15T16:55:55.535Z,26.60
2019-05-15T16:58:32.097Z,26.60
2019-05-15T17:01:08.379Z,26.60
2019-05-15T17:03:44.707Z,26.60
2019-05-15T17:06:21.286Z,26.60
2019-05-15T17:08:58.383Z,26.60
2019-05-15T17:11:35.001Z,26.60
2019-05-15T17:14:11.940Z,26.50
2019-05-15T17:16:48.781Z,26.20
2019-05-15T17:19:29.397Z,26.00
2019-05-15T17:22:05.046Z,26.10
2019-05-15T17:24:41.488Z,26.20
2019-05-15T17:27:18.670Z,26.30
2019-05-15T17:29:55.530Z,26.40
2019-05-15T17:32:32.061Z,26.40
2019-05-15T17:35:09.808Z,26.40
2019-05-15T17:37:48.567Z,26.40
2019-05-15T17:40:28.215Z,26.40
2019-05-15T17:43:04.346Z,26.40
2019-05-15T17:45:40.887Z,26.20
2019-05-15T17:48:19.649Z,26.20
2019-05-15T17:50:55.234Z,26.30
2019-05-15T17:53:31.933Z,26.40
2019-05-15T17:56:08.155Z,26.40
2019-05-15T17:58:44.001Z,26.30
2019-05-15T18:01:20.728Z,26.20
2019-05-15T18:03:59.171Z,26.30
2019-05-15T18:06:35.170Z,26.30
2019-05-15T18:09:12.721Z,26.30
2019-05-15T18:11:49.766Z,26.40
2019-05-15T18:14:26.447Z,26.30
2019-05-15T18:17:02.945Z,26.30
2019-05-15T18:19:39.558Z,26.20
2019-05-15T18:22:18.032Z,26.00
2019-05-15T18:24:54.602Z,25.90
2019-05-15T18:27:30.850Z,25.80
2019-05-15T18:30:09.228Z,25.80
2019-05-15T18:32:48.720Z,25.90
2019-05-15T18:35:24.059Z,25.90
2019-05-15T18:38:00.874Z,26.00
2019-05-15T18:40:38.432Z,25.90
2019-05-15T18:43:17.990Z,25.90
2019-05-15T18:45:54.905Z,26.00
2019-05-15T18:48:31.703Z,26.10
2019-05-15T18:51:08.252Z,26.20
2019-05-15T18:53:44.486Z,26.20
2019-05-15T18:56:22.405Z,26.10
2019-05-15T18:58:58.604Z,26.20
2019-05-15T19:01:35.638Z,26.20
2019-05-15T19:04:12.655Z,26.20
2019-05-15T19:06:49.357Z,26.20
2019-05-15T19:09:28.069Z,26.10
2019-05-15T19:12:03.652Z,26.10
2019-05-15T19:14:41.738Z,26.10
2019-05-15T19:17:18.824Z,26.10
2019-05-15T19:19:55.560Z,26.10
2019-05-15T19:22:33.593Z,25.80
2019-05-15T19:25:11.530Z,25.80
2019-05-15T19:27:48.372Z,25.80
2019-05-15T19:30:28.501Z,26.00
2019-05-15T19:33:04.459Z,26.00
2019-05-15T19:35:41.300Z,26.00
2019-05-15T19:38:18.589Z,25.90
2019-05-15T19:41:02.309Z,25.90
2019-05-15T19:43:34.840Z,26.00
2019-05-15T19:46:11.893Z,26.00
2019-05-15T19:48:52.174Z,26.00
2019-05-15T19:51:28.987Z,26.00
2019-05-15T19:54:05.601Z,26.00
2019-05-15T19:56:42.210Z,26.00
2019-05-15T19:59:22.509Z,26.00
2019-05-15T20:01:57.758Z,25.90
2019-05-15T20:04:34.364Z,25.90
2019-05-15T20:07:12.150Z,25.90
2019-05-15T20:09:48.864Z,25.80
2019-05-15T20:12:27.764Z,25.70
2019-05-15T20:15:04.194Z,25.60
2019-05-15T20:17:42.288Z,25.60
2019-05-15T20:20:18.969Z,25.60
2019-05-15T20:22:59.382Z,25.70
2019-05-15T20:25:34.373Z,25.80
2019-05-15T20:28:10.800Z,25.70
2019-05-15T20:30:48.154Z,25.50
2019-05-15T20:33:24.535Z,25.50
2019-05-15T20:36:01.393Z,25.50
2019-05-15T20:38:39.459Z,25.60
2019-05-15T20:41:18.526Z,25.60
2019-05-15T20:43:54.430Z,25.70
2019-05-15T20:46:30.793Z,25.70
2019-05-15T20:49:08.548Z,25.80
2019-05-15T20:51:45.079Z,25.80
2019-05-15T20:54:21.783Z,25.80
2019-05-15T20:56:58.546Z,25.80
2019-05-15T20:59:35.402Z,25.80
2019-05-15T21:02:11.922Z,25.70
2019-05-15T21:04:48.455Z,25.60
2019-05-15T21:07:35.887Z,25.50
2019-05-15T21:10:02.757Z,25.50
2019-05-15T21:12:40.873Z,25.60
2019-05-15T21:15:17.178Z,25.60
2019-05-15T21:17:58.591Z,25.70
2019-05-15T21:20:31.625Z,25.70
2019-05-15T21:23:09.067Z,25.80
2019-05-15T21:25:45.610Z,25.80
2019-05-15T21:28:22.104Z,25.60
2019-05-15T21:30:58.377Z,25.40
2019-05-15T21:33:35.191Z,25.50
2019-05-15T21:36:12.202Z,25.60
2019-05-15T21:38:49.005Z,25.40
2019-05-15T21:41:26.177Z,25.50
2019-05-15T21:44:02.540Z,25.60
2019-05-15T21:46:38.899Z,25.70
2019-05-15T21:49:15.893Z,25.70
2019-05-15T21:51:52.642Z,25.70
2019-05-15T21:54:29.387Z,25.70
2019-05-15T21:57:24.930Z,25.50
2019-05-15T21:59:43.235Z,25.50
2019-05-15T22:02:20.681Z,25.50
2019-05-15T22:04:59.650Z,25.50
2019-05-15T22:07:35.553Z,25.60
2019-05-15T22:10:11.776Z,25.60
2019-05-15T22:12:48.445Z,25.70
2019-05-15T22:15:28.543Z,25.60
2019-05-15T22:18:05.143Z,25.40
2019-05-15T22:20:42.069Z,25.50
2019-05-15T22:23:19.070Z,25.60
2019-05-15T22:25:55.459Z,25.50
2019-05-15T22:28:32.195Z,25.50
2019-05-15T22:31:08.998Z,25.60
2019-05-15T22:33:47.809Z,25.60
2019-05-15T22:36:23.855Z,25.50
2019-05-15T22:39:02.155Z,25.20
2019-05-15T22:41:40.287Z,25.30
2019-05-15T22:44:18.971Z,25.40
2019-05-15T22:46:55.325Z,25.40
2019-05-15T22:49:32.025Z,25.50
2019-05-15T22:52:08.648Z,25.40
2019-05-15T22:54:47.772Z,25.30
2019-05-15T22:57:24.915Z,25.20
2019-05-15T23:00:01.795Z,25.40
2019-05-15T23:02:39.227Z,25.50
2019-05-15T23:05:27.361Z,25.60
2019-05-15T23:07:54.335Z,25.70
2019-05-15T23:10:31.036Z,25.70
2019-05-15T23:13:07.481Z,25.80
2019-05-15T23:15:43.621Z,25.80
2019-05-15T23:18:20.209Z,25.80
2019-05-15T23:20:56.781Z,25.80
2019-05-15T23:23:33.445Z,25.90
2019-05-15T23:26:09.823Z,25.90
2019-05-15T23:28:47.935Z,26.10
2019-05-15T23:31:23.721Z,26.10
2019-05-15T23:34:00.140Z,26.20
2019-05-15T23:36:37.929Z,26.30
2019-05-15T23:39:14.683Z,26.30
2019-05-15T23:41:51.368Z,26.40
2019-05-15T23:44:27.785Z,26.40
2019-05-15T23:47:04.121Z,26.50
2019-05-15T23:49:42.097Z,26.50
2019-05-15T23:52:18.309Z,26.60
2019-05-15T23:54:54.911Z,26.60
2019-05-15T23:57:33.986Z,26.70
